Airfield :
LOGIN :

Register | Disclaimer

   EN    FR    IT 

 










Legend :    VFR   Marginal VFR   IFR   Intensive IFR   Very Intensive IFR
Visi :
Ceiling :
>= 8 km
>= 3000ft
5 to 8 km
1000 to 3000 ft
1500m to 5 km
500 to 1000 ft
800 to 1500m
200 to 500 ft
< 800m
< 200 ft
Symbols :   Thunderstorms  Fog  Heavy snow  Heavy precipitations  Wind > 20 kt
SIGMETs :     Misc.  Thunderstorms  Icing  Turbulence  Mountain Waves  Volcanic Ashes






- Airport Elevation : 14 ft
- IATA code : LXS


LGLM - Ifaistos

CURRENT METAR :
  • 040850Z 05013G23KT 9999 SCT008 BKN020 12/08 Q1026

EXPIRED METARs :
  • 040820Z 05014KT 9999 SCT008 BKN020 11/08 Q1026
  • 040750Z 05013KT 9999 SCT008 BKN020 11/09 Q1026
  • 040720Z 04011KT 9999 SCT008 BKN020 11/08 Q1026
  • 040650Z 05011KT 9999 SCT008 BKN020 11/08 Q1026
  • 040620Z 04012KT 9999 SCT008 BKN020 11/08 Q1026
  • 040550Z 04012KT 9999 SCT008 BKN020 11/08 Q1026

TAF TAF LGLM
Valid from the 04 at 09:00 until the 04 at 18:00 UTC


040800Z 0409/0418 04018KT 9999 FEW008 BKN020



MET'MAP, your aeronautical weather chart ! - Copyright ORBIFLY December 2007 - Disclaimer

ORBIFLY MET'MAP TEAM :

Programming & Development : Alexandra Zaïnal
Original concept : Baudouin d'Aumeries
Technical & hardware support : Manuel Goepfert
Assistance : Marc-Olivier Méhu




SOURCES & CREDITS :

   NOAA